createdAt,value
2018-09-25T00:04:17.188Z,10.70
2018-09-25T00:14:25.878Z,10.60
2018-09-25T00:24:34.469Z,10.40
2018-09-25T00:34:43.055Z,10.30
2018-09-25T00:44:52.203Z,10.20
2018-09-25T00:55:00.843Z,10.10
2018-09-25T01:05:09.428Z,9.80
2018-09-25T01:15:18.004Z,9.60
2018-09-25T01:25:26.632Z,9.60
2018-09-25T01:35:35.315Z,9.50
2018-09-25T01:45:43.980Z,9.50
2018-09-25T01:55:52.710Z,9.50
2018-09-25T02:06:01.278Z,9.50
2018-09-25T02:16:09.960Z,9.10
2018-09-25T02:26:18.615Z,8.90
2018-09-25T02:36:27.315Z,8.70
2018-09-25T02:46:35.996Z,8.40
2018-09-25T02:56:44.665Z,8.40
2018-09-25T03:06:53.098Z,8.40
2018-09-25T03:17:01.844Z,8.50
2018-09-25T03:27:10.522Z,8.40
2018-09-25T03:37:19.105Z,8.40
2018-09-25T03:47:27.805Z,8.40
2018-09-25T03:57:36.571Z,8.50
2018-09-25T04:07:45.184Z,8.10
2018-09-25T04:17:53.840Z,8.00
2018-09-25T04:28:02.445Z,7.90
2018-09-25T04:38:11.115Z,8.00
2018-09-25T04:48:19.821Z,8.00
2018-09-25T04:58:28.476Z,8.10
2018-09-25T05:08:37.189Z,8.10
2018-09-25T05:18:45.860Z,8.00
2018-09-25T05:28:54.506Z,7.90
2018-09-25T05:39:03.069Z,7.70
2018-09-25T05:49:11.757Z,7.90
2018-09-25T05:59:20.528Z,8.00
2018-09-25T06:09:29.266Z,8.10
2018-09-25T06:19:37.928Z,7.90
2018-09-25T06:29:46.392Z,8.10
2018-09-25T06:39:54.912Z,8.50
2018-09-25T06:50:03.634Z,8.60
2018-09-25T07:00:12.285Z,8.20
2018-09-25T07:10:21.028Z,8.60
2018-09-25T07:20:29.565Z,8.90
2018-09-25T07:30:38.287Z,9.00
2018-09-25T07:40:46.973Z,9.50
2018-09-25T07:50:55.678Z,9.70
2018-09-25T08:01:04.398Z,10.30
2018-09-25T08:11:13.225Z,10.60
2018-09-25T08:21:21.748Z,10.80
2018-09-25T08:31:30.441Z,11.30
2018-09-25T08:41:39.027Z,11.50
2018-09-25T08:51:47.783Z,11.70
2018-09-25T09:01:56.392Z,12.00
2018-09-25T09:12:04.942Z,12.20
2018-09-25T09:22:13.617Z,12.60
2018-09-25T09:32:22.257Z,12.90
2018-09-25T09:42:31.557Z,13.10
2018-09-25T09:52:40.263Z,13.50
2018-09-25T10:02:48.948Z,13.80
2018-09-25T10:12:57.626Z,14.00
2018-09-25T10:23:06.321Z,14.40
2018-09-25T10:33:15.020Z,14.50
2018-09-25T10:43:23.436Z,14.60
2018-09-25T10:53:31.984Z,14.60
2018-09-25T11:03:40.566Z,14.70
2018-09-25T11:13:49.137Z,14.70
2018-09-25T11:23:57.656Z,14.40
2018-09-25T11:34:06.404Z,14.50
2018-09-25T11:44:15.075Z,15.00
2018-09-25T11:54:23.745Z,15.30
2018-09-25T12:04:32.313Z,14.90
2018-09-25T12:14:41.265Z,14.90
2018-09-25T12:24:49.961Z,15.10
2018-09-25T12:34:58.573Z,15.60
2018-09-25T12:45:07.289Z,16.00
2018-09-25T12:55:15.797Z,16.10
2018-09-25T13:05:24.456Z,15.70
2018-09-25T13:15:33.146Z,15.90
2018-09-25T13:25:41.720Z,15.90
2018-09-25T13:35:50.301Z,16.20
2018-09-25T13:45:59.013Z,16.40
2018-09-25T13:56:07.703Z,16.30
2018-09-25T14:06:16.367Z,16.40
2018-09-25T14:16:25.050Z,16.60
2018-09-25T14:26:33.764Z,17.00
2018-09-25T14:36:42.420Z,16.50
2018-09-25T14:46:51.089Z,16.50
2018-09-25T14:56:59.745Z,17.60
2018-09-25T15:07:08.621Z,16.70
2018-09-25T15:17:17.368Z,18.20
2018-09-25T15:27:26.431Z,16.80
2018-09-25T15:37:34.943Z,16.30
2018-09-25T15:47:43.701Z,16.00
2018-09-25T15:57:52.385Z,15.80
2018-09-25T16:08:01.252Z,15.60
2018-09-25T16:18:09.923Z,15.40
2018-09-25T16:28:18.579Z,15.30
2018-09-25T16:38:27.168Z,15.20
2018-09-25T16:48:35.844Z,15.10
2018-09-25T16:58:44.730Z,14.80
2018-09-25T17:08:53.608Z,14.70
2018-09-25T17:19:02.524Z,14.40
2018-09-25T17:29:11.519Z,14.20
2018-09-25T17:39:20.100Z,13.90
2018-09-25T17:49:29.871Z,13.70
2018-09-25T17:59:38.420Z,13.40
2018-09-25T18:09:47.132Z,13.00
2018-09-25T18:19:55.842Z,12.80
2018-09-25T18:30:04.471Z,12.60
2018-09-25T18:40:13.120Z,12.40
2018-09-25T18:50:21.893Z,12.20
2018-09-25T19:00:31.602Z,12.10
2018-09-25T19:10:40.306Z,11.90
2018-09-25T19:20:49.016Z,11.90
2018-09-25T19:30:57.633Z,11.60
2018-09-25T19:41:06.310Z,11.30
2018-09-25T19:51:14.962Z,11.10
2018-09-25T20:01:23.831Z,11.20
2018-09-25T20:11:32.821Z,11.00
2018-09-25T20:21:41.553Z,10.80
2018-09-25T20:31:50.412Z,10.60
2018-09-25T20:41:59.046Z,10.40
2018-09-25T20:52:07.895Z,10.50
2018-09-25T21:02:16.681Z,10.30
2018-09-25T21:12:25.312Z,10.20
2018-09-25T21:22:34.293Z,10.10
2018-09-25T21:32:42.872Z,9.70
2018-09-25T21:42:51.577Z,9.60
2018-09-25T21:53:00.315Z,9.10
2018-09-25T22:03:09.440Z,9.20
2018-09-25T22:13:18.146Z,9.20
2018-09-25T22:23:26.908Z,9.20
2018-09-25T22:33:35.568Z,9.20
2018-09-25T22:43:44.221Z,9.00
2018-09-25T22:53:52.921Z,8.90
2018-09-25T23:04:01.617Z,8.70
2018-09-25T23:14:17.220Z,8.50
2018-09-25T23:24:26.030Z,8.50
2018-09-25T23:34:34.777Z,8.20
2018-09-25T23:45:08.358Z,8.20
2018-09-25T23:55:19.077Z,8.20
